Weather at Levuka Airfield

Public forecast

Using degrees Celsius for public forecast. Weather courtesy of forecast.io.

Closest aviation weather report (METAR) to Levuka Airfield

Closest report is Nausori International Airport, 23.0 nm (42.6 km) SSW.

2023/01/30 02:00 (retrieved 22 minutes ago)

NFNA 300200Z 06007KT 9999 SCT020TCU BKN300 31/24 Q1006

Closest aviation forecast (TAF) to Levuka Airfield

Forecast is more than 6 hours old.

Closest forecast is MarĂ© Airport, 647.1 nm (1,198.3 km) WSW.

2023/01/29 18:00 (retrieved 8 hours ago)

TAF NWWR 291700Z 2918/3018 18005KT 9999 SCT020 PROB40 TEMPO 2918/3003 4000 SHRA BKN012 FEW020CB PROB30 TEMPO 3000/3006 4500 SHRA BKN014 FEW020TCU